Terminal Aerodrome Forecast
Issued by NWS

Current Version | Previous Version | Text Only | Print | Product List | Glossary Off
Versions: 1 2 3 4 5 6 7 8 9 10 11 12 13 14 15 16 17 18 19 20 21 22

000
FTUS41 KRLX 232320
TAFCKB
TAF
KCKB 232320Z 2400/2424 VRB02KT P6SM VCSH BKN060
     FM240200 00000KT P6SM SCT060
     FM240800 00000KT 5SM BR FEW060
     FM241000 00000KT 2SM BR FEW060
     FM241300 VRB02KT 5SM BR SKC
     FM241400 24004KT P6SM SCT060=

USA.gov is the U.S. government's official web portal to all federal, state and local government web resources and services.